createdAt,value
2023-03-10T00:01:25.384Z,1.1875
2023-03-10T00:06:26.580Z,1.25
2023-03-10T00:11:27.499Z,1.3125
2023-03-10T00:16:28.329Z,1.25
2023-03-10T00:21:29.224Z,1.3125
2023-03-10T00:26:30.062Z,1.3125
2023-03-10T00:31:31.050Z,1.1875
2023-03-10T00:36:32.198Z,1.25
2023-03-10T00:41:33.011Z,1.125
2023-03-10T00:46:33.973Z,1.25
2023-03-10T00:51:35.068Z,1.1875
2023-03-10T00:56:35.957Z,1.3125
2023-03-10T01:01:37.022Z,1.25
2023-03-10T01:06:38.221Z,1.25
2023-03-10T01:11:39.266Z,1.25
2023-03-10T01:16:40.214Z,1.125
2023-03-10T01:21:41.083Z,1.125
2023-03-10T01:26:42.087Z,1.1875
2023-03-10T01:31:43.115Z,1.125
2023-03-10T01:36:44.103Z,1.125
2023-03-10T01:41:45.081Z,1.125
2023-03-10T01:46:46.193Z,1.125
2023-03-10T01:51:47.132Z,1
2023-03-10T01:56:47.840Z,1.0625
2023-03-10T02:01:48.895Z,1.125
2023-03-10T02:06:49.951Z,1.25
2023-03-10T02:11:51.149Z,1.25
2023-03-10T02:16:52.040Z,1.3125
2023-03-10T02:21:52.839Z,1.3125
2023-03-10T02:26:54.507Z,1.25
2023-03-10T02:31:55.069Z,1.25
2023-03-10T02:36:55.793Z,1.25
2023-03-10T02:41:56.713Z,1.25
2023-03-10T02:46:57.757Z,1.3125
2023-03-10T02:51:58.621Z,1.1875
2023-03-10T02:56:59.672Z,1.3125
2023-03-10T03:02:00.671Z,1.25
2023-03-10T03:07:01.810Z,1.3125
2023-03-10T03:12:02.910Z,1.375
2023-03-10T03:17:04.026Z,1.4375
2023-03-10T03:22:04.858Z,1.375
2023-03-10T03:27:06.339Z,1.4375
2023-03-10T03:32:06.921Z,1.5
2023-03-10T03:37:07.698Z,1.5
2023-03-10T03:42:08.756Z,1.4375
2023-03-10T03:47:09.577Z,1.4375
2023-03-10T03:52:10.742Z,1.5
2023-03-10T03:57:11.752Z,1.4375
2023-03-10T04:02:12.756Z,1.4375
2023-03-10T04:07:13.609Z,1.4375
2023-03-10T04:12:14.574Z,1.4375
2023-03-10T04:17:15.223Z,1.4375
2023-03-10T04:22:16.171Z,1.375
2023-03-10T04:27:17.118Z,1.5
2023-03-10T04:32:18.056Z,1.4375
2023-03-10T04:37:19.055Z,1.5
2023-03-10T04:42:20.109Z,1.4375
2023-03-10T04:47:21.101Z,1.3125
2023-03-10T04:52:22.087Z,1.5
2023-03-10T04:57:23.248Z,1.5625
2023-03-10T05:02:24.085Z,1.5
2023-03-10T05:07:25.047Z,1.625
2023-03-10T05:12:25.980Z,1.625
2023-03-10T05:17:27.019Z,1.6875
2023-03-10T05:22:28.144Z,1.5625
2023-03-10T05:27:29.337Z,1.625
2023-03-10T05:32:30.146Z,1.75
2023-03-10T05:37:31.153Z,1.75
2023-03-10T05:42:32.131Z,1.75
2023-03-10T05:47:32.906Z,1.8125
2023-03-10T05:52:33.704Z,1.8125
2023-03-10T05:57:34.623Z,1.75
2023-03-10T06:02:35.693Z,1.875
2023-03-10T06:07:36.501Z,1.9375
2023-03-10T06:12:37.458Z,2
2023-03-10T06:17:38.819Z,2.0625
2023-03-10T06:22:39.841Z,2.1875
2023-03-10T06:27:40.987Z,2.125
2023-03-10T06:32:41.865Z,2.1875
2023-03-10T06:37:42.922Z,2.3125
2023-03-10T06:42:43.798Z,2.25
2023-03-10T06:47:44.785Z,2.3125
2023-03-10T06:52:45.786Z,2.25
2023-03-10T06:57:46.545Z,2.3125
2023-03-10T07:02:47.476Z,2.375
2023-03-10T07:07:48.369Z,2.4375
2023-03-10T07:12:49.400Z,2.5
2023-03-10T07:17:50.431Z,2.5625
2023-03-10T07:22:51.356Z,2.6875
2023-03-10T07:27:52.583Z,2.8125
2023-03-10T07:32:53.426Z,2.9375
2023-03-10T07:37:54.182Z,3.0625
2023-03-10T07:42:55.219Z,3.0625
2023-03-10T07:47:56.394Z,3.0625
2023-03-10T07:52:57.342Z,3.125
2023-03-10T07:57:58.420Z,3.25
2023-03-10T08:02:59.262Z,3.5625
2023-03-10T08:08:00.162Z,3.625
2023-03-10T08:13:01.219Z,3.9375
2023-03-10T08:18:02.253Z,4.0625
2023-03-10T08:23:03.089Z,4.375
2023-03-10T08:28:04.093Z,4.375
2023-03-10T08:33:05.375Z,4.5
2023-03-10T08:38:06.025Z,4.5625
2023-03-10T08:43:06.993Z,4.6875
2023-03-10T08:48:07.889Z,5.0625
2023-03-10T08:53:08.763Z,5.125
2023-03-10T08:58:11.990Z,5.375
2023-03-10T09:03:15.369Z,5.375
2023-03-10T09:08:14.314Z,5.375
2023-03-10T09:13:15.128Z,4.875
2023-03-10T09:18:16.222Z,5.5625
2023-03-10T09:23:17.503Z,6.3125
2023-03-10T09:28:18.798Z,6.75
2023-03-10T09:33:19.224Z,6.9375
2023-03-10T09:38:20.358Z,7.3125
2023-03-10T09:43:21.171Z,7.5
2023-03-10T09:48:23.100Z,7.375
2023-03-10T09:53:23.085Z,7
2023-03-10T09:58:24.094Z,6.75
2023-03-10T10:03:25.172Z,7.5
2023-03-10T10:08:28.646Z,7.875
2023-03-10T10:13:27.095Z,7.875
2023-03-10T10:18:28.104Z,7.9375
2023-03-10T10:23:28.957Z,7.75
2023-03-10T10:28:30.478Z,7.8125
2023-03-10T10:33:30.940Z,7.9375
2023-03-10T10:38:32.004Z,7.75
2023-03-10T10:43:34.677Z,8
2023-03-10T10:48:34.088Z,8.1875
2023-03-10T10:53:35.069Z,8.0625
2023-03-10T10:58:35.943Z,7.9375
2023-03-10T11:03:37.881Z,7.625
2023-03-10T11:08:38.611Z,7.4375
2023-03-10T11:13:39.651Z,7.5625
2023-03-10T11:18:40.488Z,7.8125
2023-03-10T11:23:43.898Z,7.8125
2023-03-10T11:28:44.946Z,8.125
2023-03-10T11:33:45.860Z,8.0625
2023-03-10T11:38:46.749Z,8
2023-03-10T11:43:47.716Z,8
2023-03-10T11:48:48.772Z,8.1875
2023-03-10T11:53:49.685Z,8
2023-03-10T11:58:50.735Z,8
2023-03-10T12:03:51.753Z,8.0625
2023-03-10T12:08:52.653Z,7.75
2023-03-10T12:13:53.826Z,7.8125
2023-03-10T12:18:54.604Z,7.8125
2023-03-10T12:23:55.282Z,7.75
2023-03-10T12:28:56.844Z,7.8125
2023-03-10T12:33:57.535Z,7.6875
2023-03-10T12:38:58.330Z,7.4375
2023-03-10T12:43:59.531Z,7.9375
2023-03-10T12:49:00.382Z,7.75
2023-03-10T12:54:01.210Z,8.0625
2023-03-10T12:59:02.263Z,8
2023-03-10T13:04:03.310Z,8.25
2023-03-10T13:09:04.219Z,7.6875
2023-03-10T13:14:05.293Z,7.625
2023-03-10T13:19:06.291Z,7.75
2023-03-10T13:24:07.180Z,7.8125
2023-03-10T13:29:08.225Z,7.625
2023-03-10T13:34:09.014Z,7.8125
2023-03-10T13:39:10.090Z,8.125
2023-03-10T13:44:10.988Z,8
2023-03-10T13:49:11.791Z,8
2023-03-10T13:54:12.846Z,8
2023-03-10T13:59:13.714Z,7.875
2023-03-10T14:04:14.708Z,7.5
2023-03-10T14:09:15.799Z,7.3125
2023-03-10T14:14:16.683Z,6.9375
2023-03-10T14:19:17.576Z,6.625
2023-03-10T14:24:18.599Z,6.625
2023-03-10T14:29:20.131Z,6.4375
2023-03-10T14:34:20.466Z,6.375
2023-03-10T14:39:21.389Z,6.4375
2023-03-10T14:44:22.478Z,6.5625
2023-03-10T14:49:23.691Z,6.375
2023-03-10T14:54:24.692Z,6.125
2023-03-10T14:59:25.653Z,5.875
2023-03-10T15:04:26.723Z,5.8125
2023-03-10T15:09:27.571Z,5.625
2023-03-10T15:14:28.731Z,5.5625
2023-03-10T15:19:29.644Z,5.375
2023-03-10T15:24:30.836Z,5.25
2023-03-10T15:29:33.078Z,5.125
2023-03-10T15:34:34.100Z,5
2023-03-10T15:39:37.055Z,4.8125
2023-03-10T15:44:36.087Z,4.5
2023-03-10T15:49:37.045Z,4.5
2023-03-10T15:54:38.069Z,4.3125
2023-03-10T15:59:38.980Z,4.1875
2023-03-10T16:04:39.835Z,4.0625
2023-03-10T16:09:40.530Z,4
2023-03-10T16:14:41.431Z,3.9375
2023-03-10T16:19:42.228Z,3.875
2023-03-10T16:24:43.287Z,3.875
2023-03-10T16:29:44.639Z,3.8125
2023-03-10T16:34:45.395Z,3.75
2023-03-10T16:39:46.102Z,3.625
2023-03-10T16:44:46.882Z,3.625
2023-03-10T16:49:47.738Z,3.5625
2023-03-10T16:54:48.973Z,3.625
2023-03-10T16:59:49.866Z,3.625
2023-03-10T17:04:50.865Z,3.5625
2023-03-10T17:09:51.815Z,3.5
2023-03-10T17:14:52.854Z,3.25
2023-03-10T17:19:53.922Z,3.3125
2023-03-10T17:24:54.799Z,3.0625
2023-03-10T17:29:55.905Z,3.0625
2023-03-10T17:34:56.849Z,3.0625
2023-03-10T17:39:57.936Z,3
2023-03-10T17:44:58.757Z,3
2023-03-10T17:49:59.755Z,2.9375
2023-03-10T17:55:00.570Z,2.9375
2023-03-10T18:00:01.417Z,2.875
2023-03-10T18:05:02.476Z,2.8125
2023-03-10T18:10:03.489Z,2.8125
2023-03-10T18:15:04.360Z,2.8125
2023-03-10T18:20:05.217Z,2.6875
2023-03-10T18:25:06.042Z,2.625
2023-03-10T18:30:07.463Z,2.4375
2023-03-10T18:35:07.782Z,2.5625
2023-03-10T18:40:09.015Z,2.5625
2023-03-10T18:45:09.755Z,2.4375
2023-03-10T18:50:10.698Z,2.3125
2023-03-10T18:55:11.702Z,2.4375
2023-03-10T19:00:12.674Z,2.375
2023-03-10T19:05:13.782Z,2.375
2023-03-10T19:10:14.869Z,2.25
2023-03-10T19:15:15.781Z,2.5
2023-03-10T19:20:16.818Z,2.25
2023-03-10T19:25:17.580Z,2.3125
2023-03-10T19:30:18.579Z,2.25
2023-03-10T19:35:19.568Z,2.375
2023-03-10T19:40:20.601Z,2.4375
2023-03-10T19:45:21.453Z,2.1875
2023-03-10T19:50:22.481Z,2.375
2023-03-10T19:55:23.798Z,2.375
2023-03-10T20:00:24.515Z,2.375
2023-03-10T20:05:25.611Z,2.3125
2023-03-10T20:10:26.631Z,2.125
2023-03-10T20:15:27.469Z,2.1875
2023-03-10T20:20:28.661Z,1.875
2023-03-10T20:25:29.535Z,2.1875
2023-03-10T20:30:30.445Z,1.9375
2023-03-10T20:35:31.434Z,2.125
2023-03-10T20:40:32.364Z,2.125
2023-03-10T20:45:33.466Z,2.0625
2023-03-10T20:50:34.441Z,2.0625
2023-03-10T20:55:35.556Z,1.9375
2023-03-10T21:00:38.886Z,1.9375
2023-03-10T21:05:40.274Z,1.9375
2023-03-10T21:10:41.335Z,1.875
2023-03-10T21:15:42.374Z,1.8125
2023-03-10T21:20:43.313Z,1.8125
2023-03-10T21:25:44.537Z,1.875
2023-03-10T21:30:46.121Z,1.8125
2023-03-10T21:35:46.760Z,1.625
2023-03-10T21:40:47.804Z,1.875
2023-03-10T21:45:48.774Z,1.875
2023-03-10T21:50:49.710Z,1.8125
2023-03-10T21:55:50.783Z,1.75
2023-03-10T22:00:52.775Z,1.75
2023-03-10T22:05:52.728Z,1.75
2023-03-10T22:10:53.513Z,1.875
2023-03-10T22:15:54.296Z,1.8125
2023-03-10T22:20:55.245Z,1.6875
2023-03-10T22:25:56.020Z,1.6875
2023-03-10T22:30:57.531Z,1.6875
2023-03-10T22:35:58.053Z,1.5
2023-03-10T22:40:59.118Z,1.5
2023-03-10T22:45:59.918Z,1.5
2023-03-10T22:51:00.775Z,1.375
2023-03-10T22:56:01.768Z,1.4375
2023-03-10T23:01:02.657Z,1.25
2023-03-10T23:06:03.639Z,1.375
2023-03-10T23:11:04.551Z,1.375
2023-03-10T23:16:05.722Z,1.25
2023-03-10T23:21:06.508Z,1.3125
2023-03-10T23:26:07.211Z,1.1875
2023-03-10T23:31:08.822Z,1.3125
2023-03-10T23:36:09.506Z,1.25
2023-03-10T23:41:10.483Z,1.1875
2023-03-10T23:46:11.527Z,1.125
2023-03-10T23:51:12.578Z,1.125
2023-03-10T23:56:13.416Z,1.125
